sensor_id;sensor_type;location;lat;lon;timestamp;P1;durP1;ratioP1;P2;durP2;ratioP2
24555;SDS011;12725;49.440;10.954;2022-08-19T00:03:12;7.93;;;2.08;;
24555;SDS011;12725;49.440;10.954;2022-08-19T00:07:12;5.80;;;3.33;;
24555;SDS011;12725;49.440;10.954;2022-08-19T00:11:13;3.75;;;2.95;;
24555;SDS011;12725;49.440;10.954;2022-08-19T00:15:14;4.03;;;3.03;;
24555;SDS011;12725;49.440;10.954;2022-08-19T00:19:16;2.42;;;2.13;;
24555;SDS011;12725;49.440;10.954;2022-08-19T00:23:18;2.13;;;1.83;;
24555;SDS011;12725;49.440;10.954;2022-08-19T00:27:18;4.20;;;2.80;;
24555;SDS011;12725;49.440;10.954;2022-08-19T00:31:19;5.47;;;1.70;;
24555;SDS011;12725;49.440;10.954;2022-08-19T00:35:20;3.25;;;2.30;;
24555;SDS011;12725;49.440;10.954;2022-08-19T00:39:21;3.33;;;2.63;;
24555;SDS011;12725;49.440;10.954;2022-08-19T00:43:23;2.90;;;2.38;;
24555;SDS011;12725;49.440;10.954;2022-08-19T00:47:25;5.40;;;1.73;;
24555;SDS011;12725;49.440;10.954;2022-08-19T00:51:27;3.70;;;2.13;;
24555;SDS011;12725;49.440;10.954;2022-08-19T00:55:28;5.68;;;2.97;;
24555;SDS011;12725;49.440;10.954;2022-08-19T00:59:28;6.22;;;2.95;;
24555;SDS011;12725;49.440;10.954;2022-08-19T01:03:29;8.63;;;2.92;;
24555;SDS011;12725;49.440;10.954;2022-08-19T01:07:29;3.78;;;2.47;;
24555;SDS011;12725;49.440;10.954;2022-08-19T01:11:31;4.20;;;2.58;;
24555;SDS011;12725;49.440;10.954;2022-08-19T01:15:45;2.47;;;2.22;;
24555;SDS011;12725;49.440;10.954;2022-08-19T01:19:49;3.47;;;2.42;;
24555;SDS011;12725;49.440;10.954;2022-08-19T01:23:49;5.60;;;3.83;;
24555;SDS011;12725;49.440;10.954;2022-08-19T01:27:50;3.55;;;2.40;;
24555;SDS011;12725;49.440;10.954;2022-08-19T01:31:51;1.35;;;1.23;;
24555;SDS011;12725;49.440;10.954;2022-08-19T01:35:52;4.68;;;2.20;;
24555;SDS011;12725;49.440;10.954;2022-08-19T01:39:54;4.68;;;3.05;;
24555;SDS011;12725;49.440;10.954;2022-08-19T01:43:54;4.50;;;3.13;;
24555;SDS011;12725;49.440;10.954;2022-08-19T01:47:56;5.50;;;3.35;;
24555;SDS011;12725;49.440;10.954;2022-08-19T01:51:57;4.63;;;2.33;;
24555;SDS011;12725;49.440;10.954;2022-08-19T01:55:59;4.95;;;2.22;;
24555;SDS011;12725;49.440;10.954;2022-08-19T02:00:00;12.55;;;3.00;;
24555;SDS011;12725;49.440;10.954;2022-08-19T02:04:04;7.40;;;3.38;;
24555;SDS011;12725;49.440;10.954;2022-08-19T02:08:06;3.50;;;2.42;;
24555;SDS011;12725;49.440;10.954;2022-08-19T02:12:07;9.32;;;2.92;;
24555;SDS011;12725;49.440;10.954;2022-08-19T02:16:08;12.88;;;3.42;;
24555;SDS011;12725;49.440;10.954;2022-08-19T02:20:10;4.38;;;3.25;;
24555;SDS011;12725;49.440;10.954;2022-08-19T02:24:10;4.47;;;3.15;;
24555;SDS011;12725;49.440;10.954;2022-08-19T02:28:12;5.00;;;2.67;;
24555;SDS011;12725;49.440;10.954;2022-08-19T02:32:12;7.88;;;4.03;;
24555;SDS011;12725;49.440;10.954;2022-08-19T02:36:14;6.72;;;3.05;;
24555;SDS011;12725;49.440;10.954;2022-08-19T02:40:15;8.05;;;3.55;;
24555;SDS011;12725;49.440;10.954;2022-08-19T02:44:17;5.63;;;3.30;;
24555;SDS011;12725;49.440;10.954;2022-08-19T02:48:18;4.60;;;3.20;;
24555;SDS011;12725;49.440;10.954;2022-08-19T02:52:20;4.22;;;2.78;;
24555;SDS011;12725;49.440;10.954;2022-08-19T02:56:23;5.50;;;3.28;;
24555;SDS011;12725;49.440;10.954;2022-08-19T03:00:27;6.82;;;3.00;;
24555;SDS011;12725;49.440;10.954;2022-08-19T03:04:27;6.20;;;3.70;;
24555;SDS011;12725;49.440;10.954;2022-08-19T03:08:28;8.60;;;3.17;;
24555;SDS011;12725;49.440;10.954;2022-08-19T03:12:28;4.45;;;3.00;;
24555;SDS011;12725;49.440;10.954;2022-08-19T03:16:30;5.75;;;3.85;;
24555;SDS011;12725;49.440;10.954;2022-08-19T03:20:31;5.28;;;2.63;;
24555;SDS011;12725;49.440;10.954;2022-08-19T03:24:32;7.43;;;4.28;;
24555;SDS011;12725;49.440;10.954;2022-08-19T03:28:33;4.63;;;3.03;;
24555;SDS011;12725;49.440;10.954;2022-08-19T03:32:34;8.02;;;3.78;;
24555;SDS011;12725;49.440;10.954;2022-08-19T03:36:34;6.33;;;3.33;;
24555;SDS011;12725;49.440;10.954;2022-08-19T03:40:38;6.10;;;3.53;;
24555;SDS011;12725;49.440;10.954;2022-08-19T03:44:38;3.53;;;2.28;;
24555;SDS011;12725;49.440;10.954;2022-08-19T03:48:40;8.80;;;3.47;;
24555;SDS011;12725;49.440;10.954;2022-08-19T03:52:41;13.90;;;3.00;;
24555;SDS011;12725;49.440;10.954;2022-08-19T03:56:42;8.10;;;4.22;;
24555;SDS011;12725;49.440;10.954;2022-08-19T04:00:43;3.70;;;2.53;;
24555;SDS011;12725;49.440;10.954;2022-08-19T04:04:44;6.97;;;2.37;;
24555;SDS011;12725;49.440;10.954;2022-08-19T04:08:45;4.43;;;2.38;;
24555;SDS011;12725;49.440;10.954;2022-08-19T04:12:45;7.32;;;3.28;;
24555;SDS011;12725;49.440;10.954;2022-08-19T04:16:46;10.23;;;3.50;;
24555;SDS011;12725;49.440;10.954;2022-08-19T04:20:47;7.72;;;4.13;;
24555;SDS011;12725;49.440;10.954;2022-08-19T04:24:48;6.18;;;3.88;;
24555;SDS011;12725;49.440;10.954;2022-08-19T04:28:49;6.43;;;3.25;;
24555;SDS011;12725;49.440;10.954;2022-08-19T04:32:51;11.18;;;3.78;;
24555;SDS011;12725;49.440;10.954;2022-08-19T04:36:52;7.22;;;4.68;;
24555;SDS011;12725;49.440;10.954;2022-08-19T04:40:53;10.48;;;4.32;;
24555;SDS011;12725;49.440;10.954;2022-08-19T04:45:13;7.38;;;3.35;;
24555;SDS011;12725;49.440;10.954;2022-08-19T04:49:14;6.70;;;3.70;;
24555;SDS011;12725;49.440;10.954;2022-08-19T04:53:16;7.78;;;3.38;;
24555;SDS011;12725;49.440;10.954;2022-08-19T04:57:17;4.78;;;2.30;;
24555;SDS011;12725;49.440;10.954;2022-08-19T05:01:18;9.98;;;2.85;;
24555;SDS011;12725;49.440;10.954;2022-08-19T05:05:21;7.40;;;2.90;;
24555;SDS011;12725;49.440;10.954;2022-08-19T05:09:21;8.87;;;2.23;;
24555;SDS011;12725;49.440;10.954;2022-08-19T05:13:22;14.77;;;4.47;;
24555;SDS011;12725;49.440;10.954;2022-08-19T05:17:23;6.97;;;2.92;;
24555;SDS011;12725;49.440;10.954;2022-08-19T05:21:24;7.40;;;3.85;;
24555;SDS011;12725;49.440;10.954;2022-08-19T05:25:43;9.43;;;3.03;;
24555;SDS011;12725;49.440;10.954;2022-08-19T05:29:44;8.65;;;3.95;;
24555;SDS011;12725;49.440;10.954;2022-08-19T05:33:45;7.07;;;3.27;;
24555;SDS011;12725;49.440;10.954;2022-08-19T05:37:45;8.60;;;3.10;;
24555;SDS011;12725;49.440;10.954;2022-08-19T05:41:49;8.68;;;3.05;;
24555;SDS011;12725;49.440;10.954;2022-08-19T05:45:52;4.90;;;3.75;;
24555;SDS011;12725;49.440;10.954;2022-08-19T05:49:52;9.48;;;4.28;;
24555;SDS011;12725;49.440;10.954;2022-08-19T05:53:53;8.05;;;3.50;;
24555;SDS011;12725;49.440;10.954;2022-08-19T05:57:53;5.88;;;3.05;;
24555;SDS011;12725;49.440;10.954;2022-08-19T06:01:54;11.33;;;3.87;;
24555;SDS011;12725;49.440;10.954;2022-08-19T06:05:56;6.78;;;3.17;;
24555;SDS011;12725;49.440;10.954;2022-08-19T06:09:59;8.35;;;4.80;;
24555;SDS011;12725;49.440;10.954;2022-08-19T06:14:00;6.07;;;3.60;;
24555;SDS011;12725;49.440;10.954;2022-08-19T06:18:03;10.52;;;4.28;;
24555;SDS011;12725;49.440;10.954;2022-08-19T06:22:03;5.80;;;2.70;;
24555;SDS011;12725;49.440;10.954;2022-08-19T06:26:04;5.60;;;3.35;;
24555;SDS011;12725;49.440;10.954;2022-08-19T06:30:05;10.63;;;3.75;;
24555;SDS011;12725;49.440;10.954;2022-08-19T06:34:06;8.63;;;3.15;;
24555;SDS011;12725;49.440;10.954;2022-08-19T06:38:06;4.77;;;2.90;;
24555;SDS011;12725;49.440;10.954;2022-08-19T06:42:07;6.07;;;3.25;;
24555;SDS011;12725;49.440;10.954;2022-08-19T06:46:12;11.07;;;3.17;;
24555;SDS011;12725;49.440;10.954;2022-08-19T06:50:13;5.78;;;3.17;;
24555;SDS011;12725;49.440;10.954;2022-08-19T06:54:14;7.32;;;2.90;;
24555;SDS011;12725;49.440;10.954;2022-08-19T06:58:16;4.60;;;2.75;;
24555;SDS011;12725;49.440;10.954;2022-08-19T07:02:16;10.95;;;3.08;;
24555;SDS011;12725;49.440;10.954;2022-08-19T07:06:17;7.97;;;2.40;;
24555;SDS011;12725;49.440;10.954;2022-08-19T07:10:20;4.15;;;2.72;;
24555;SDS011;12725;49.440;10.954;2022-08-19T07:14:23;3.40;;;2.10;;
24555;SDS011;12725;49.440;10.954;2022-08-19T07:18:25;5.60;;;3.10;;
24555;SDS011;12725;49.440;10.954;2022-08-19T07:22:25;5.80;;;3.60;;
24555;SDS011;12725;49.440;10.954;2022-08-19T07:26:27;4.60;;;2.55;;
24555;SDS011;12725;49.440;10.954;2022-08-19T07:30:29;2.97;;;1.80;;
24555;SDS011;12725;49.440;10.954;2022-08-19T07:34:33;5.75;;;2.33;;
24555;SDS011;12725;49.440;10.954;2022-08-19T07:38:38;6.22;;;2.72;;
24555;SDS011;12725;49.440;10.954;2022-08-19T07:42:40;4.85;;;2.65;;
24555;SDS011;12725;49.440;10.954;2022-08-19T07:46:45;8.45;;;4.47;;
24555;SDS011;12725;49.440;10.954;2022-08-19T07:50:46;5.75;;;3.33;;
24555;SDS011;12725;49.440;10.954;2022-08-19T07:54:48;5.03;;;2.55;;
24555;SDS011;12725;49.440;10.954;2022-08-19T07:58:50;4.32;;;3.10;;
24555;SDS011;12725;49.440;10.954;2022-08-19T08:02:51;4.95;;;3.25;;
24555;SDS011;12725;49.440;10.954;2022-08-19T08:06:52;6.90;;;3.28;;
24555;SDS011;12725;49.440;10.954;2022-08-19T08:11:12;9.70;;;3.40;;
24555;SDS011;12725;49.440;10.954;2022-08-19T08:15:13;5.38;;;2.85;;
24555;SDS011;12725;49.440;10.954;2022-08-19T08:19:19;7.68;;;3.63;;
24555;SDS011;12725;49.440;10.954;2022-08-19T08:23:20;6.18;;;3.03;;
24555;SDS011;12725;49.440;10.954;2022-08-19T08:27:28;11.85;;;3.47;;
24555;SDS011;12725;49.440;10.954;2022-08-19T08:31:31;3.42;;;2.70;;
24555;SDS011;12725;49.440;10.954;2022-08-19T08:35:34;10.07;;;4.57;;
24555;SDS011;12725;49.440;10.954;2022-08-19T08:39:34;6.93;;;3.05;;
24555;SDS011;12725;49.440;10.954;2022-08-19T08:43:37;7.35;;;3.95;;
24555;SDS011;12725;49.440;10.954;2022-08-19T08:47:42;9.55;;;3.15;;
24555;SDS011;12725;49.440;10.954;2022-08-19T08:51:48;4.97;;;3.10;;
24555;SDS011;12725;49.440;10.954;2022-08-19T08:55:53;4.82;;;2.92;;
24555;SDS011;12725;49.440;10.954;2022-08-19T08:59:53;10.43;;;3.53;;
24555;SDS011;12725;49.440;10.954;2022-08-19T09:03:55;10.45;;;3.85;;
24555;SDS011;12725;49.440;10.954;2022-08-19T09:08:13;5.30;;;3.17;;
24555;SDS011;12725;49.440;10.954;2022-08-19T09:12:31;7.82;;;2.60;;
24555;SDS011;12725;49.440;10.954;2022-08-19T09:16:43;8.98;;;4.32;;
24555;SDS011;12725;49.440;10.954;2022-08-19T09:20:44;7.40;;;3.73;;
24555;SDS011;12725;49.440;10.954;2022-08-19T09:24:47;6.43;;;3.03;;
24555;SDS011;12725;49.440;10.954;2022-08-19T09:28:49;6.22;;;3.13;;
24555;SDS011;12725;49.440;10.954;2022-08-19T09:32:52;4.45;;;2.67;;
24555;SDS011;12725;49.440;10.954;2022-08-19T09:36:53;6.13;;;3.00;;
24555;SDS011;12725;49.440;10.954;2022-08-19T09:40:55;6.85;;;2.78;;
24555;SDS011;12725;49.440;10.954;2022-08-19T09:44:55;7.93;;;2.73;;
24555;SDS011;12725;49.440;10.954;2022-08-19T09:48:57;5.53;;;3.00;;
24555;SDS011;12725;49.440;10.954;2022-08-19T09:52:59;4.35;;;2.45;;
24555;SDS011;12725;49.440;10.954;2022-08-19T09:57:00;5.13;;;3.28;;
24555;SDS011;12725;49.440;10.954;2022-08-19T10:01:02;5.68;;;3.45;;
24555;SDS011;12725;49.440;10.954;2022-08-19T10:05:03;8.30;;;3.25;;
24555;SDS011;12725;49.440;10.954;2022-08-19T10:09:22;8.98;;;3.63;;
24555;SDS011;12725;49.440;10.954;2022-08-19T10:13:24;3.22;;;2.30;;
24555;SDS011;12725;49.440;10.954;2022-08-19T10:17:26;5.28;;;3.22;;
24555;SDS011;12725;49.440;10.954;2022-08-19T10:21:27;7.75;;;3.63;;
24555;SDS011;12725;49.440;10.954;2022-08-19T10:25:29;6.05;;;3.65;;
24555;SDS011;12725;49.440;10.954;2022-08-19T10:29:33;8.00;;;3.25;;
24555;SDS011;12725;49.440;10.954;2022-08-19T10:33:35;6.82;;;3.63;;
24555;SDS011;12725;49.440;10.954;2022-08-19T10:37:36;4.18;;;2.92;;
24555;SDS011;12725;49.440;10.954;2022-08-19T10:41:37;5.85;;;2.42;;
24555;SDS011;12725;49.440;10.954;2022-08-19T10:45:39;3.75;;;2.92;;
24555;SDS011;12725;49.440;10.954;2022-08-19T10:49:39;8.15;;;2.60;;
24555;SDS011;12725;49.440;10.954;2022-08-19T10:53:59;4.45;;;2.38;;
24555;SDS011;12725;49.440;10.954;2022-08-19T10:58:00;4.63;;;2.80;;
24555;SDS011;12725;49.440;10.954;2022-08-19T11:02:01;5.03;;;2.10;;
24555;SDS011;12725;49.440;10.954;2022-08-19T11:06:06;5.55;;;2.65;;
24555;SDS011;12725;49.440;10.954;2022-08-19T11:10:09;7.30;;;2.88;;
24555;SDS011;12725;49.440;10.954;2022-08-19T11:14:11;7.32;;;3.00;;
24555;SDS011;12725;49.440;10.954;2022-08-19T11:18:14;4.63;;;2.42;;
24555;SDS011;12725;49.440;10.954;2022-08-19T11:22:14;3.60;;;2.13;;
24555;SDS011;12725;49.440;10.954;2022-08-19T11:26:15;6.47;;;2.50;;
24555;SDS011;12725;49.440;10.954;2022-08-19T11:30:15;5.82;;;3.05;;
24555;SDS011;12725;49.440;10.954;2022-08-19T11:34:18;9.00;;;3.45;;
24555;SDS011;12725;49.440;10.954;2022-08-19T11:38:20;14.20;;;3.30;;
24555;SDS011;12725;49.440;10.954;2022-08-19T11:42:21;4.32;;;1.98;;
24555;SDS011;12725;49.440;10.954;2022-08-19T11:46:41;1.88;;;1.65;;
24555;SDS011;12725;49.440;10.954;2022-08-19T11:50:45;6.55;;;3.63;;
24555;SDS011;12725;49.440;10.954;2022-08-19T11:54:45;5.33;;;2.40;;
24555;SDS011;12725;49.440;10.954;2022-08-19T11:58:46;2.30;;;2.10;;
24555;SDS011;12725;49.440;10.954;2022-08-19T12:02:46;4.07;;;2.47;;
24555;SDS011;12725;49.440;10.954;2022-08-19T12:06:46;4.20;;;2.05;;
24555;SDS011;12725;49.440;10.954;2022-08-19T12:10:47;5.38;;;2.88;;
24555;SDS011;12725;49.440;10.954;2022-08-19T12:14:47;4.47;;;2.30;;
24555;SDS011;12725;49.440;10.954;2022-08-19T12:18:48;4.82;;;3.15;;
24555;SDS011;12725;49.440;10.954;2022-08-19T12:22:50;2.10;;;1.75;;
24555;SDS011;12725;49.440;10.954;2022-08-19T12:26:51;2.75;;;1.98;;
24555;SDS011;12725;49.440;10.954;2022-08-19T12:30:51;2.40;;;2.17;;
24555;SDS011;12725;49.440;10.954;2022-08-19T12:34:52;4.65;;;3.15;;
24555;SDS011;12725;49.440;10.954;2022-08-19T12:38:52;3.08;;;2.33;;
24555;SDS011;12725;49.440;10.954;2022-08-19T12:42:53;3.53;;;2.42;;
24555;SDS011;12725;49.440;10.954;2022-08-19T12:46:54;5.72;;;3.35;;
24555;SDS011;12725;49.440;10.954;2022-08-19T12:50:54;16.10;;;3.80;;
24555;SDS011;12725;49.440;10.954;2022-08-19T12:54:55;1.92;;;1.77;;
24555;SDS011;12725;49.440;10.954;2022-08-19T12:58:56;5.57;;;3.83;;
24555;SDS011;12725;49.440;10.954;2022-08-19T13:02:57;4.10;;;3.60;;
24555;SDS011;12725;49.440;10.954;2022-08-19T13:06:58;4.85;;;4.22;;
24555;SDS011;12725;49.440;10.954;2022-08-19T13:11:06;5.47;;;3.90;;
24555;SDS011;12725;49.440;10.954;2022-08-19T13:15:08;4.32;;;3.28;;
24555;SDS011;12725;49.440;10.954;2022-08-19T13:19:09;2.53;;;2.33;;
24555;SDS011;12725;49.440;10.954;2022-08-19T13:23:11;8.48;;;3.25;;
24555;SDS011;12725;49.440;10.954;2022-08-19T13:27:12;6.30;;;4.15;;
24555;SDS011;12725;49.440;10.954;2022-08-19T13:31:14;6.47;;;4.25;;
24555;SDS011;12725;49.440;10.954;2022-08-19T13:35:34;7.80;;;5.50;;
24555;SDS011;12725;49.440;10.954;2022-08-19T13:39:35;7.22;;;3.15;;
24555;SDS011;12725;49.440;10.954;2022-08-19T13:43:36;12.85;;;5.00;;
24555;SDS011;12725;49.440;10.954;2022-08-19T13:47:37;6.28;;;3.95;;
24555;SDS011;12725;49.440;10.954;2022-08-19T13:51:46;22.17;;;6.28;;
24555;SDS011;12725;49.440;10.954;2022-08-19T13:55:46;8.20;;;5.68;;
24555;SDS011;12725;49.440;10.954;2022-08-19T13:59:47;4.35;;;3.70;;
24555;SDS011;12725;49.440;10.954;2022-08-19T14:03:47;6.78;;;3.17;;
24555;SDS011;12725;49.440;10.954;2022-08-19T14:07:48;5.28;;;4.38;;
24555;SDS011;12725;49.440;10.954;2022-08-19T14:11:48;5.80;;;5.18;;
24555;SDS011;12725;49.440;10.954;2022-08-19T14:15:50;4.78;;;4.07;;
24555;SDS011;12725;49.440;10.954;2022-08-19T14:19:58;4.88;;;3.85;;
24555;SDS011;12725;49.440;10.954;2022-08-19T14:24:00;13.77;;;4.83;;
24555;SDS011;12725;49.440;10.954;2022-08-19T14:28:01;4.68;;;3.83;;
24555;SDS011;12725;49.440;10.954;2022-08-19T14:32:02;5.30;;;4.45;;
24555;SDS011;12725;49.440;10.954;2022-08-19T14:36:03;6.43;;;4.53;;
24555;SDS011;12725;49.440;10.954;2022-08-19T14:40:04;8.25;;;4.18;;
24555;SDS011;12725;49.440;10.954;2022-08-19T14:44:05;5.30;;;3.58;;
24555;SDS011;12725;49.440;10.954;2022-08-19T14:48:06;14.75;;;4.90;;
24555;SDS011;12725;49.440;10.954;2022-08-19T14:52:07;4.13;;;2.50;;
24555;SDS011;12725;49.440;10.954;2022-08-19T14:56:09;3.63;;;2.45;;
24555;SDS011;12725;49.440;10.954;2022-08-19T15:00:11;2.72;;;2.47;;
24555;SDS011;12725;49.440;10.954;2022-08-19T15:04:13;4.70;;;4.30;;
24555;SDS011;12725;49.440;10.954;2022-08-19T15:08:13;4.13;;;2.53;;
24555;SDS011;12725;49.440;10.954;2022-08-19T15:12:13;11.15;;;3.00;;
24555;SDS011;12725;49.440;10.954;2022-08-19T15:16:14;3.07;;;2.00;;
24555;SDS011;12725;49.440;10.954;2022-08-19T15:20:17;3.45;;;2.95;;
24555;SDS011;12725;49.440;10.954;2022-08-19T15:24:19;3.30;;;3.00;;
24555;SDS011;12725;49.440;10.954;2022-08-19T15:28:23;4.70;;;2.85;;
24555;SDS011;12725;49.440;10.954;2022-08-19T15:32:24;3.10;;;2.13;;
24555;SDS011;12725;49.440;10.954;2022-08-19T15:36:26;8.60;;;3.10;;
24555;SDS011;12725;49.440;10.954;2022-08-19T15:40:27;4.32;;;3.22;;
24555;SDS011;12725;49.440;10.954;2022-08-19T15:44:28;3.65;;;3.28;;
24555;SDS011;12725;49.440;10.954;2022-08-19T15:48:29;3.38;;;2.45;;
24555;SDS011;12725;49.440;10.954;2022-08-19T15:52:29;1.67;;;1.40;;
24555;SDS011;12725;49.440;10.954;2022-08-19T15:56:29;7.75;;;1.40;;
24555;SDS011;12725;49.440;10.954;2022-08-19T16:00:48;2.42;;;2.22;;
24555;SDS011;12725;49.440;10.954;2022-08-19T16:05:09;2.23;;;2.03;;
24555;SDS011;12725;49.440;10.954;2022-08-19T16:09:30;2.42;;;1.77;;
24555;SDS011;12725;49.440;10.954;2022-08-19T16:13:31;0.85;;;0.85;;
24555;SDS011;12725;49.440;10.954;2022-08-19T16:17:32;2.92;;;2.45;;
24555;SDS011;12725;49.440;10.954;2022-08-19T16:21:34;2.55;;;2.25;;
24555;SDS011;12725;49.440;10.954;2022-08-19T16:25:36;2.03;;;1.65;;
24555;SDS011;12725;49.440;10.954;2022-08-19T16:29:38;1.40;;;1.30;;
24555;SDS011;12725;49.440;10.954;2022-08-19T16:33:39;2.60;;;2.30;;
24555;SDS011;12725;49.440;10.954;2022-08-19T16:37:39;1.65;;;1.55;;
24555;SDS011;12725;49.440;10.954;2022-08-19T16:41:40;2.55;;;1.92;;
24555;SDS011;12725;49.440;10.954;2022-08-19T16:45:41;3.13;;;1.90;;
24555;SDS011;12725;49.440;10.954;2022-08-19T16:49:42;1.75;;;1.65;;
24555;SDS011;12725;49.440;10.954;2022-08-19T16:53:43;2.22;;;2.03;;
24555;SDS011;12725;49.440;10.954;2022-08-19T16:57:44;1.67;;;1.58;;
24555;SDS011;12725;49.440;10.954;2022-08-19T17:01:44;2.17;;;1.67;;
24555;SDS011;12725;49.440;10.954;2022-08-19T17:05:46;3.55;;;1.83;;
24555;SDS011;12725;49.440;10.954;2022-08-19T17:09:48;2.92;;;1.75;;
24555;SDS011;12725;49.440;10.954;2022-08-19T17:13:49;0.98;;;0.98;;
24555;SDS011;12725;49.440;10.954;2022-08-19T17:17:51;2.05;;;1.55;;
24555;SDS011;12725;49.440;10.954;2022-08-19T17:21:52;2.13;;;1.92;;
24555;SDS011;12725;49.440;10.954;2022-08-19T17:25:53;1.55;;;1.45;;
24555;SDS011;12725;49.440;10.954;2022-08-19T17:29:54;0.60;;;0.60;;
24555;SDS011;12725;49.440;10.954;2022-08-19T17:33:54;2.28;;;1.90;;
24555;SDS011;12725;49.440;10.954;2022-08-19T17:38:02;0.95;;;0.90;;
24555;SDS011;12725;49.440;10.954;2022-08-19T17:42:06;2.50;;;1.88;;
24555;SDS011;12725;49.440;10.954;2022-08-19T17:46:07;1.65;;;1.55;;
24555;SDS011;12725;49.440;10.954;2022-08-19T17:50:09;2.47;;;2.25;;
24555;SDS011;12725;49.440;10.954;2022-08-19T17:54:16;1.13;;;1.02;;
24555;SDS011;12725;49.440;10.954;2022-08-19T17:58:18;1.88;;;1.77;;
24555;SDS011;12725;49.440;10.954;2022-08-19T18:02:19;1.85;;;1.75;;
24555;SDS011;12725;49.440;10.954;2022-08-19T18:06:20;2.35;;;2.15;;
24555;SDS011;12725;49.440;10.954;2022-08-19T18:10:21;1.33;;;1.20;;
24555;SDS011;12725;49.440;10.954;2022-08-19T18:14:24;2.10;;;1.67;;
24555;SDS011;12725;49.440;10.954;2022-08-19T18:18:27;2.42;;;2.20;;
24555;SDS011;12725;49.440;10.954;2022-08-19T18:22:30;1.65;;;1.55;;
24555;SDS011;12725;49.440;10.954;2022-08-19T18:26:35;1.08;;;1.02;;
24555;SDS011;12725;49.440;10.954;2022-08-19T18:30:36;2.72;;;1.95;;
24555;SDS011;12725;49.440;10.954;2022-08-19T18:34:37;2.63;;;2.28;;
24555;SDS011;12725;49.440;10.954;2022-08-19T18:38:38;1.77;;;1.42;;
24555;SDS011;12725;49.440;10.954;2022-08-19T18:42:57;2.13;;;1.35;;
24555;SDS011;12725;49.440;10.954;2022-08-19T18:47:10;1.20;;;1.10;;
24555;SDS011;12725;49.440;10.954;2022-08-19T18:51:29;1.75;;;1.35;;
24555;SDS011;12725;49.440;10.954;2022-08-19T18:55:31;10.23;;;1.85;;
24555;SDS011;12725;49.440;10.954;2022-08-19T18:59:31;0.50;;;0.50;;
24555;SDS011;12725;49.440;10.954;2022-08-19T19:03:32;2.15;;;1.73;;
24555;SDS011;12725;49.440;10.954;2022-08-19T19:07:33;1.73;;;1.63;;
24555;SDS011;12725;49.440;10.954;2022-08-19T19:11:34;1.38;;;1.27;;
24555;SDS011;12725;49.440;10.954;2022-08-19T19:15:37;2.00;;;1.80;;
24555;SDS011;12725;49.440;10.954;2022-08-19T19:19:42;1.95;;;1.58;;
24555;SDS011;12725;49.440;10.954;2022-08-19T19:23:43;2.35;;;1.85;;
24555;SDS011;12725;49.440;10.954;2022-08-19T19:27:43;1.88;;;1.73;;
24555;SDS011;12725;49.440;10.954;2022-08-19T19:31:43;3.47;;;2.22;;
24555;SDS011;12725;49.440;10.954;2022-08-19T19:35:44;2.05;;;1.85;;
24555;SDS011;12725;49.440;10.954;2022-08-19T19:39:45;1.98;;;1.38;;
24555;SDS011;12725;49.440;10.954;2022-08-19T19:43:49;2.95;;;2.55;;
24555;SDS011;12725;49.440;10.954;2022-08-19T19:47:51;2.60;;;1.83;;
24555;SDS011;12725;49.440;10.954;2022-08-19T19:51:51;2.03;;;1.15;;
24555;SDS011;12725;49.440;10.954;2022-08-19T19:55:52;2.22;;;2.05;;
24555;SDS011;12725;49.440;10.954;2022-08-19T20:00:01;2.63;;;1.65;;
24555;SDS011;12725;49.440;10.954;2022-08-19T20:04:01;5.38;;;2.88;;
24555;SDS011;12725;49.440;10.954;2022-08-19T20:08:02;4.40;;;2.25;;
24555;SDS011;12725;49.440;10.954;2022-08-19T20:12:22;0.80;;;0.80;;
24555;SDS011;12725;49.440;10.954;2022-08-19T20:16:22;0.93;;;0.93;;
24555;SDS011;12725;49.440;10.954;2022-08-19T20:20:24;2.05;;;1.38;;
24555;SDS011;12725;49.440;10.954;2022-08-19T20:24:26;1.27;;;1.20;;
24555;SDS011;12725;49.440;10.954;2022-08-19T20:28:31;1.85;;;1.75;;
24555;SDS011;12725;49.440;10.954;2022-08-19T20:32:31;1.27;;;1.17;;
24555;SDS011;12725;49.440;10.954;2022-08-19T20:36:32;1.88;;;1.45;;
24555;SDS011;12725;49.440;10.954;2022-08-19T20:40:33;2.35;;;1.35;;
24555;SDS011;12725;49.440;10.954;2022-08-19T20:44:34;2.55;;;1.70;;
24555;SDS011;12725;49.440;10.954;2022-08-19T20:48:36;2.22;;;2.03;;
24555;SDS011;12725;49.440;10.954;2022-08-19T20:52:38;4.30;;;3.40;;
24555;SDS011;12725;49.440;10.954;2022-08-19T20:56:39;2.67;;;2.40;;
24555;SDS011;12725;49.440;10.954;2022-08-19T21:00:39;2.05;;;1.80;;
24555;SDS011;12725;49.440;10.954;2022-08-19T21:04:40;0.80;;;0.80;;
24555;SDS011;12725;49.440;10.954;2022-08-19T21:08:41;2.35;;;2.15;;
24555;SDS011;12725;49.440;10.954;2022-08-19T21:12:41;1.90;;;1.30;;
24555;SDS011;12725;49.440;10.954;2022-08-19T21:16:43;0.73;;;0.73;;
24555;SDS011;12725;49.440;10.954;2022-08-19T21:20:43;3.27;;;2.97;;
24555;SDS011;12725;49.440;10.954;2022-08-19T21:24:44;5.20;;;3.30;;
24555;SDS011;12725;49.440;10.954;2022-08-19T21:28:45;1.70;;;1.60;;
24555;SDS011;12725;49.440;10.954;2022-08-19T21:33:05;2.13;;;1.67;;
24555;SDS011;12725;49.440;10.954;2022-08-19T21:37:25;3.72;;;3.13;;
24555;SDS011;12725;49.440;10.954;2022-08-19T21:41:46;5.78;;;2.75;;
24555;SDS011;12725;49.440;10.954;2022-08-19T21:46:06;2.25;;;2.05;;
24555;SDS011;12725;49.440;10.954;2022-08-19T21:50:27;4.18;;;3.40;;
24555;SDS011;12725;49.440;10.954;2022-08-19T21:54:51;2.60;;;1.98;;
24555;SDS011;12725;49.440;10.954;2022-08-19T21:59:12;1.70;;;1.60;;
24555;SDS011;12725;49.440;10.954;2022-08-19T22:03:33;2.63;;;2.00;;
24555;SDS011;12725;49.440;10.954;2022-08-19T22:07:55;1.40;;;1.30;;
24555;SDS011;12725;49.440;10.954;2022-08-19T22:12:23;2.10;;;2.00;;
24555;SDS011;12725;49.440;10.954;2022-08-19T22:16:45;3.22;;;2.92;;
24555;SDS011;12725;49.440;10.954;2022-08-19T22:21:06;4.80;;;3.40;;
24555;SDS011;12725;49.440;10.954;2022-08-19T22:25:28;4.78;;;2.30;;
24555;SDS011;12725;49.440;10.954;2022-08-19T22:29:50;1.30;;;1.20;;
24555;SDS011;12725;49.440;10.954;2022-08-19T22:34:11;6.72;;;3.55;;
24555;SDS011;12725;49.440;10.954;2022-08-19T22:38:31;3.60;;;2.72;;
24555;SDS011;12725;49.440;10.954;2022-08-19T22:42:56;2.13;;;1.92;;
24555;SDS011;12725;49.440;10.954;2022-08-19T22:47:21;3.28;;;2.25;;
24555;SDS011;12725;49.440;10.954;2022-08-19T22:51:41;6.47;;;3.63;;
24555;SDS011;12725;49.440;10.954;2022-08-19T22:56:20;3.38;;;3.08;;
24555;SDS011;12725;49.440;10.954;2022-08-19T23:00:40;2.70;;;2.42;;
24555;SDS011;12725;49.440;10.954;2022-08-19T23:05:01;2.42;;;2.22;;
24555;SDS011;12725;49.440;10.954;2022-08-19T23:09:21;1.73;;;1.63;;
24555;SDS011;12725;49.440;10.954;2022-08-19T23:13:41;1.60;;;1.50;;
24555;SDS011;12725;49.440;10.954;2022-08-19T23:18:03;3.28;;;2.65;;
24555;SDS011;12725;49.440;10.954;2022-08-19T23:22:24;1.02;;;0.85;;
24555;SDS011;12725;49.440;10.954;2022-08-19T23:26:44;4.28;;;3.50;;
24555;SDS011;12725;49.440;10.954;2022-08-19T23:31:24;2.45;;;2.20;;
24555;SDS011;12725;49.440;10.954;2022-08-19T23:35:45;0.90;;;0.90;;
24555;SDS011;12725;49.440;10.954;2022-08-19T23:40:06;2.78;;;2.35;;
24555;SDS011;12725;49.440;10.954;2022-08-19T23:44:27;2.53;;;2.33;;
24555;SDS011;12725;49.440;10.954;2022-08-19T23:48:48;5.15;;;2.63;;
24555;SDS011;12725;49.440;10.954;2022-08-19T23:53:09;4.55;;;2.08;;
24555;SDS011;12725;49.440;10.954;2022-08-19T23:57:29;2.38;;;1.77;;
